createdAt,value
2022-12-08T00:02:11.789Z,27.00
2022-12-08T00:05:33.322Z,25.33
2022-12-08T00:08:54.500Z,31.50
2022-12-08T00:12:11.755Z,37.00
2022-12-08T00:15:14.489Z,27.67
2022-12-08T00:18:16.896Z,20.33
2022-12-08T00:21:19.727Z,29.33
2022-12-08T00:24:23.842Z,17.67
2022-12-08T00:27:26.699Z,21.67
2022-12-08T00:30:29.096Z,25.00
2022-12-08T00:33:31.770Z,29.33
2022-12-08T00:36:34.647Z,22.00
2022-12-08T00:39:37.360Z,20.67
2022-12-08T00:42:39.753Z,24.33
2022-12-08T00:45:43.585Z,27.33
2022-12-08T00:48:45.995Z,23.33
2022-12-08T00:51:48.847Z,20.33
2022-12-08T00:54:51.183Z,19.33
2022-12-08T00:57:54.011Z,25.00
2022-12-08T01:00:56.546Z,18.00
2022-12-08T01:04:03.784Z,23.67
2022-12-08T01:07:06.168Z,19.00
2022-12-08T01:10:09.312Z,21.33
2022-12-08T01:13:12.025Z,13.00
2022-12-08T01:16:44.318Z,18.33
2022-12-08T01:19:46.756Z,17.33
2022-12-08T01:22:49.466Z,15.33
2022-12-08T01:25:51.872Z,14.67
2022-12-08T01:28:54.699Z,18.00
2022-12-08T01:31:57.211Z,18.33
2022-12-08T01:34:59.885Z,23.33
2022-12-08T01:38:02.293Z,15.67
2022-12-08T01:41:05.062Z,13.67
2022-12-08T01:44:08.517Z,11.33
2022-12-08T01:47:12.016Z,9.33
2022-12-08T01:50:16.343Z,10.00
2022-12-08T01:53:24.067Z,10.00
2022-12-08T01:56:32.746Z,15.67
2022-12-08T01:59:42.067Z,13.00
2022-12-08T02:03:01.104Z,10.00
2022-12-08T02:06:04.561Z,10.00
2022-12-08T02:09:07.445Z,10.00
2022-12-08T02:12:10.535Z,9.67
2022-12-08T02:15:13.140Z,15.67
2022-12-08T02:18:31.452Z,8.33
2022-12-08T02:21:39.386Z,9.67
2022-12-08T02:24:45.118Z,13.00
2022-12-08T02:27:59.582Z,13.67
2022-12-08T02:31:36.477Z,2.00
2022-12-08T02:34:44.872Z,9.00
2022-12-08T02:37:55.133Z,10.00
2022-12-08T02:41:03.619Z,6.00
2022-12-08T02:44:49.884Z,10.00
2022-12-08T02:47:52.951Z,7.00
2022-12-08T02:50:55.814Z,8.33
2022-12-08T02:53:58.420Z,12.00
2022-12-08T02:57:14.080Z,12.00
2022-12-08T03:00:18.948Z,13.67
2022-12-08T03:03:36.522Z,11.00
2022-12-08T03:06:45.360Z,9.00
2022-12-08T03:09:53.096Z,7.67
2022-12-08T03:13:16.439Z,8.33
2022-12-08T03:16:24.702Z,13.67
2022-12-08T03:19:36.132Z,9.00
2022-12-08T03:22:41.083Z,9.67
2022-12-08T03:25:57.468Z,16.67
2022-12-08T03:29:00.380Z,12.33
2022-12-08T03:32:16.726Z,15.00
2022-12-08T03:35:26.350Z,17.67
2022-12-08T03:38:37.969Z,12.33
2022-12-08T03:41:40.730Z,15.67
2022-12-08T03:44:43.083Z,18.67
2022-12-08T03:47:45.795Z,11.33
2022-12-08T03:50:48.172Z,13.00
2022-12-08T03:53:51.227Z,14.33
2022-12-08T03:56:53.636Z,16.00
2022-12-08T03:59:56.290Z,19.00
2022-12-08T04:02:59.184Z,14.67
2022-12-08T04:06:01.998Z,16.00
2022-12-08T04:09:05.250Z,17.67
2022-12-08T04:12:09.124Z,15.33
2022-12-08T04:15:11.637Z,18.00
2022-12-08T04:18:15.135Z,12.67
2022-12-08T04:21:17.841Z,15.33
2022-12-08T04:24:20.603Z,15.67
2022-12-08T04:27:23.003Z,19.00
2022-12-08T04:30:25.819Z,18.67
2022-12-08T04:33:28.754Z,15.00
2022-12-08T04:36:31.464Z,22.00
2022-12-08T04:39:33.812Z,18.67
2022-12-08T04:42:36.686Z,22.00
2022-12-08T04:45:42.920Z,19.67
2022-12-08T04:48:45.982Z,19.00
2022-12-08T04:51:48.480Z,22.67
2022-12-08T04:54:51.247Z,21.33
2022-12-08T04:57:53.590Z,18.33
2022-12-08T05:00:56.365Z,21.67
2022-12-08T05:03:58.883Z,21.33
2022-12-08T05:07:01.647Z,18.67
2022-12-08T05:10:04.846Z,22.67
2022-12-08T05:13:07.885Z,20.33
2022-12-08T05:16:13.237Z,20.67
2022-12-08T05:19:16.686Z,24.33
2022-12-08T05:22:19.088Z,21.33
2022-12-08T05:25:21.751Z,21.33
2022-12-08T05:28:41.809Z,25.33
2022-12-08T05:31:45.013Z,21.33
2022-12-08T05:34:47.519Z,22.00
2022-12-08T05:37:50.282Z,26.33
2022-12-08T05:40:52.657Z,19.67
2022-12-08T05:43:55.423Z,12.00
2022-12-08T05:46:58.227Z,21.33
2022-12-08T05:50:01.235Z,20.67
2022-12-08T05:53:03.888Z,16.67
2022-12-08T05:56:06.861Z,27.33
2022-12-08T05:59:09.344Z,26.33
2022-12-08T06:02:12.203Z,18.00
2022-12-08T06:05:14.821Z,19.00
2022-12-08T06:08:17.934Z,19.00
2022-12-08T06:11:25.429Z,20.67
2022-12-08T06:14:28.733Z,15.33
2022-12-08T06:17:31.126Z,20.67
2022-12-08T06:20:34.595Z,27.00
2022-12-08T06:23:37.679Z,15.00
2022-12-08T06:26:41.669Z,25.33
2022-12-08T06:29:44.675Z,27.00
2022-12-08T06:32:47.401Z,18.67
2022-12-08T06:35:49.857Z,21.33
2022-12-08T06:38:52.895Z,24.33
2022-12-08T06:42:13.598Z,23.33
2022-12-08T06:45:17.607Z,23.33
2022-12-08T06:48:20.302Z,19.33
2022-12-08T06:51:23.693Z,20.33
2022-12-08T06:54:26.148Z,22.00
2022-12-08T06:57:29.024Z,27.00
2022-12-08T07:00:31.393Z,23.00
2022-12-08T07:03:34.217Z,31.33
2022-12-08T07:06:36.772Z,24.00
2022-12-08T07:09:39.516Z,29.67
2022-12-08T07:12:41.889Z,26.33
2022-12-08T07:15:44.662Z,18.00
2022-12-08T07:18:47.300Z,21.00
2022-12-08T07:21:50.226Z,12.67
2022-12-08T07:24:52.712Z,16.00
2022-12-08T07:27:55.690Z,17.67
2022-12-08T07:30:58.223Z,20.33
2022-12-08T07:34:01.060Z,22.00
2022-12-08T07:37:03.722Z,22.00
2022-12-08T07:40:08.063Z,28.00
2022-12-08T07:43:10.740Z,28.00
2022-12-08T07:46:19.281Z,28.00
2022-12-08T07:49:21.931Z,20.33
2022-12-08T07:52:24.824Z,30.25
2022-12-08T07:55:27.344Z,24.33
2022-12-08T07:58:30.057Z,21.67
2022-12-08T08:01:35.402Z,30.33
2022-12-08T08:04:38.327Z,25.67
2022-12-08T08:07:43.495Z,24.00
2022-12-08T08:10:47.176Z,20.67
2022-12-08T08:13:53.438Z,26.33
2022-12-08T08:16:56.541Z,28.00
2022-12-08T08:19:59.490Z,25.33
2022-12-08T08:23:02.391Z,30.00
2022-12-08T08:26:05.886Z,31.67
2022-12-08T08:29:08.745Z,24.00
2022-12-08T08:32:11.539Z,21.33
2022-12-08T08:35:14.260Z,18.00
2022-12-08T08:38:16.785Z,24.33
2022-12-08T08:41:19.722Z,27.67
2022-12-08T08:44:22.161Z,26.33
2022-12-08T08:47:24.960Z,18.33
2022-12-08T08:50:30.526Z,21.33
2022-12-08T08:53:37.526Z,24.00
2022-12-08T08:56:39.945Z,18.67
2022-12-08T08:59:42.739Z,19.00
2022-12-08T09:02:45.277Z,26.33
2022-12-08T09:05:48.564Z,18.67
2022-12-08T09:08:51.042Z,31.00
2022-12-08T09:11:55.474Z,21.67
2022-12-08T09:14:57.941Z,18.67
2022-12-08T09:18:00.900Z,19.00
2022-12-08T09:21:13.421Z,22.00
2022-12-08T09:24:16.790Z,18.67
2022-12-08T09:27:19.497Z,20.33
2022-12-08T09:30:22.345Z,22.00
2022-12-08T09:33:25.027Z,19.00
2022-12-08T09:36:27.920Z,19.00
2022-12-08T09:39:30.422Z,14.33
2022-12-08T09:42:39.148Z,26.33
2022-12-08T09:45:42.255Z,19.33
2022-12-08T09:48:58.894Z,25.00
2022-12-08T09:52:01.925Z,23.33
2022-12-08T09:55:12.949Z,30.33
2022-12-08T09:58:48.663Z,24.67
2022-12-08T10:01:52.967Z,30.00
2022-12-08T10:04:57.630Z,26.00
2022-12-08T10:08:08.960Z,25.67
2022-12-08T10:11:17.262Z,31.67
2022-12-08T10:14:36.549Z,36.67
2022-12-08T10:17:45.736Z,31.00
2022-12-08T10:20:50.522Z,25.67
2022-12-08T10:24:26.859Z,27.00
2022-12-08T10:27:30.042Z,26.33
2022-12-08T10:30:32.772Z,30.33
2022-12-08T10:33:35.523Z,29.33
2022-12-08T10:36:56.759Z,28.00
2022-12-08T10:40:09.749Z,25.67
2022-12-08T10:43:22.353Z,29.67
2022-12-08T10:46:27.554Z,28.67
2022-12-08T10:49:32.682Z,34.67
2022-12-08T10:52:39.673Z,31.67
2022-12-08T10:55:53.913Z,28.33
2022-12-08T10:59:15.137Z,22.33
2022-12-08T11:02:20.985Z,29.00
2022-12-08T11:05:28.047Z,34.00
2022-12-08T11:08:30.880Z,39.00
2022-12-08T11:11:49.972Z,30.67
2022-12-08T11:15:01.651Z,28.33
2022-12-08T11:18:10.747Z,39.00
2022-12-08T11:21:18.445Z,29.33
2022-12-08T11:24:30.212Z,29.67
2022-12-08T11:27:38.375Z,29.33
2022-12-08T11:30:48.530Z,35.33
2022-12-08T11:33:52.706Z,35.33
2022-12-08T11:36:56.289Z,30.00
2022-12-08T11:40:01.342Z,41.00
2022-12-08T11:43:26.867Z,36.67
2022-12-08T11:46:37.762Z,44.00
2022-12-08T11:49:42.742Z,35.00
2022-12-08T11:52:51.046Z,34.00
2022-12-08T11:55:58.814Z,33.00
2022-12-08T11:59:23.407Z,31.67
2022-12-08T12:02:32.602Z,35.67
2022-12-08T12:06:53.690Z,35.67
2022-12-08T12:10:14.184Z,38.00
2022-12-08T12:13:28.361Z,40.00
2022-12-08T12:16:50.828Z,41.00
2022-12-08T12:19:53.735Z,48.00
2022-12-08T12:23:19.114Z,36.33
2022-12-08T12:26:27.676Z,36.00
2022-12-08T12:29:34.406Z,34.33
2022-12-08T12:32:57.533Z,33.00
2022-12-08T12:36:04.650Z,35.33
2022-12-08T12:39:12.880Z,42.00
2022-12-08T12:42:45.948Z,44.33
2022-12-08T12:45:48.487Z,43.00
2022-12-08T12:48:52.412Z,46.00
2022-12-08T12:51:55.974Z,47.00
2022-12-08T12:54:58.756Z,54.67
2022-12-08T12:58:16.442Z,47.67
2022-12-08T13:01:22.282Z,55.33
2022-12-08T13:04:36.518Z,51.00
2022-12-08T13:07:59.254Z,56.33
2022-12-08T13:11:08.282Z,50.33
2022-12-08T13:14:35.459Z,64.00
2022-12-08T13:17:38.977Z,45.67
2022-12-08T13:20:45.964Z,50.33
2022-12-08T13:23:50.979Z,53.33
2022-12-08T13:27:05.980Z,52.00
2022-12-08T13:30:43.858Z,57.33
2022-12-08T13:33:47.435Z,56.67
2022-12-08T13:37:00.763Z,56.67
2022-12-08T13:40:15.025Z,51.00
2022-12-08T13:43:24.239Z,51.33
2022-12-08T13:51:23.722Z,62.67
2022-12-08T13:54:51.900Z,61.67
2022-12-08T13:57:32.810Z,58.33
2022-12-08T14:00:35.994Z,56.00
2022-12-08T14:07:19.879Z,60.00
2022-12-08T14:10:29.026Z,60.33
2022-12-08T14:13:32.488Z,42.33
2022-12-08T14:16:40.696Z,61.67
2022-12-08T14:19:46.253Z,42.33
2022-12-08T14:22:48.885Z,63.00
2022-12-08T14:25:51.723Z,69.67
2022-12-08T14:28:54.335Z,63.67
2022-12-08T14:31:58.121Z,55.33
2022-12-08T14:35:02.128Z,59.00
2022-12-08T14:38:16.628Z,65.33
2022-12-08T14:41:27.295Z,57.67
2022-12-08T14:44:32.493Z,61.00
2022-12-08T14:47:35.101Z,61.00
2022-12-08T14:50:41.097Z,57.00
2022-12-08T14:54:01.321Z,62.00
2022-12-08T14:57:04.515Z,62.33
2022-12-08T15:00:09.453Z,69.00
2022-12-08T15:03:13.769Z,55.33
2022-12-08T15:06:16.420Z,58.00
2022-12-08T15:09:46.264Z,59.67
2022-12-08T15:13:22.349Z,62.00
2022-12-08T15:16:39.581Z,68.00
2022-12-08T15:19:42.120Z,58.33
2022-12-08T15:22:45.058Z,63.00
2022-12-08T15:25:48.176Z,65.67
2022-12-08T15:28:51.083Z,31.33
2022-12-08T15:31:56.620Z,60.67
2022-12-08T15:34:59.540Z,61.67
2022-12-08T15:38:02.069Z,63.50
2022-12-08T15:41:08.066Z,71.25
2022-12-08T15:44:13.922Z,64.00
2022-12-08T15:47:19.223Z,71.25
2022-12-08T15:50:23.304Z,66.00
2022-12-08T15:53:26.509Z,66.00
2022-12-08T15:56:29.788Z,76.00
2022-12-08T15:59:32.646Z,70.67
2022-12-08T16:03:05.079Z,69.75
2022-12-08T16:06:50.841Z,70.00
2022-12-08T16:09:31.609Z,70.50
2022-12-08T16:16:21.637Z,72.25
2022-12-08T16:19:24.621Z,70.25
2022-12-08T16:26:20.262Z,69.50
2022-12-08T16:29:20.978Z,72.25
2022-12-08T16:32:24.196Z,74.50
2022-12-08T16:35:27.109Z,71.50
2022-12-08T16:38:30.398Z,73.75
2022-12-08T16:41:52.197Z,65.67
2022-12-08T16:44:55.240Z,64.67
2022-12-08T16:47:59.980Z,64.67
2022-12-08T16:51:04.827Z,67.25
2022-12-08T16:54:07.438Z,61.00
2022-12-08T16:57:12.801Z,66.50
2022-12-08T17:00:19.013Z,66.50
2022-12-08T17:03:22.362Z,70.00
2022-12-08T17:06:24.941Z,66.25
2022-12-08T17:09:28.845Z,63.75
2022-12-08T17:12:31.570Z,51.33
2022-12-08T17:15:34.854Z,60.67
2022-12-08T17:18:37.700Z,62.67
2022-12-08T17:21:41.174Z,61.50
2022-12-08T17:24:44.525Z,68.00
2022-12-08T17:27:47.541Z,69.00
2022-12-08T17:30:50.984Z,69.50
2022-12-08T17:33:54.328Z,69.50
2022-12-08T17:36:58.321Z,69.25
2022-12-08T17:40:01.409Z,73.00
2022-12-08T17:43:04.279Z,68.00
2022-12-08T17:46:08.595Z,67.67
2022-12-08T17:49:16.186Z,73.00
2022-12-08T17:52:19.956Z,67.33
2022-12-08T17:55:25.607Z,71.50
2022-12-08T17:58:32.099Z,70.00
2022-12-08T18:01:40.444Z,72.75
2022-12-08T18:04:44.209Z,68.00
2022-12-08T18:07:49.271Z,66.50
2022-12-08T18:10:54.118Z,58.75
2022-12-08T18:13:57.644Z,73.25
2022-12-08T18:17:02.036Z,62.50
2022-12-08T18:20:08.037Z,61.00
2022-12-08T18:23:11.899Z,66.00
2022-12-08T18:26:16.357Z,61.33
2022-12-08T18:29:20.712Z,69.25
2022-12-08T18:32:24.977Z,70.00
2022-12-08T18:35:29.457Z,66.50
2022-12-08T18:38:32.655Z,64.00
2022-12-08T18:41:35.883Z,65.00
2022-12-08T18:44:40.057Z,62.33
2022-12-08T18:47:43.589Z,69.00
2022-12-08T18:50:46.822Z,58.00
2022-12-08T19:05:23.916Z,48.67
2022-12-08T19:08:31.369Z,56.33
2022-12-08T19:11:34.849Z,66.00
2022-12-08T19:14:38.685Z,64.67
2022-12-08T19:17:45.124Z,50.33
2022-12-08T19:20:49.169Z,66.67
2022-12-08T19:23:56.679Z,54.67
2022-12-08T19:27:00.933Z,67.33
2022-12-08T19:30:05.559Z,59.00
2022-12-08T19:33:09.651Z,64.33
2022-12-08T19:36:21.773Z,75.00
2022-12-08T19:39:49.880Z,66.33
2022-12-08T19:43:17.316Z,66.25
2022-12-08T19:46:31.161Z,71.33
2022-12-08T19:49:37.935Z,64.00
2022-12-08T19:52:42.668Z,55.33
2022-12-08T19:56:41.836Z,64.33
2022-12-08T19:59:47.056Z,56.67
2022-12-08T20:02:54.618Z,52.33
2022-12-08T20:05:59.265Z,54.33
2022-12-08T20:09:05.068Z,57.00
2022-12-08T20:12:09.783Z,57.33
2022-12-08T20:15:16.624Z,53.00
2022-12-08T20:18:21.729Z,56.33
2022-12-08T20:21:25.742Z,52.33
2022-12-08T20:24:36.634Z,50.00
2022-12-08T20:27:55.819Z,55.33
2022-12-08T20:31:00.032Z,61.33
2022-12-08T20:34:04.241Z,52.00
2022-12-08T20:37:08.709Z,63.25
2022-12-08T20:40:12.580Z,58.67
2022-12-08T20:43:17.113Z,58.33
2022-12-08T20:46:25.827Z,67.25
2022-12-08T20:49:34.983Z,64.33
2022-12-08T20:52:39.903Z,51.33
2022-12-08T20:55:45.145Z,52.00
2022-12-08T20:58:50.368Z,54.33
2022-12-08T21:01:55.100Z,65.33
2022-12-08T21:04:58.386Z,55.33
2022-12-08T21:08:03.704Z,60.00
2022-12-08T21:11:08.828Z,58.00
2022-12-08T21:14:20.553Z,65.67
2022-12-08T21:17:28.576Z,61.50
2022-12-08T21:20:32.125Z,59.50
2022-12-08T21:26:54.820Z,41.00
2022-12-08T21:29:57.451Z,58.25
2022-12-08T21:33:01.381Z,49.75
2022-12-08T21:36:09.795Z,53.50
2022-12-08T21:39:13.343Z,61.00
2022-12-08T21:42:34.822Z,60.50
2022-12-08T21:45:40.655Z,63.25
2022-12-08T21:48:43.277Z,28.25
2022-12-08T21:51:47.509Z,64.50
2022-12-08T21:54:50.325Z,67.00
2022-12-08T21:57:53.438Z,62.75
2022-12-08T22:01:09.458Z,58.50
2022-12-08T22:05:21.016Z,64.50
2022-12-08T22:14:08.353Z,67.50
2022-12-08T23:15:25.706Z,69.25
2022-12-08T23:34:04.533Z,65.25
2022-12-08T23:37:36.199Z,70.25
2022-12-08T23:40:40.131Z,67.25
2022-12-08T23:43:51.332Z,66.50
2022-12-08T23:47:30.842Z,71.25
2022-12-08T23:54:55.111Z,71.00
2022-12-08T23:58:08.277Z,72.25
